createdAt,value
2022-07-31T00:01:09.482Z,57.90
2022-07-31T00:05:11.381Z,58.22
2022-07-31T00:09:52.992Z,58.59
2022-07-31T00:13:56.374Z,59.07
2022-07-31T00:17:55.959Z,59.89
2022-07-31T00:21:58.554Z,60.11
2022-07-31T00:26:00.273Z,60.26
2022-07-31T00:30:02.297Z,60.47
2022-07-31T00:34:03.825Z,60.96
2022-07-31T00:38:26.315Z,61.37
2022-07-31T00:42:26.861Z,61.83
2022-07-31T00:46:28.400Z,62.31
2022-07-31T00:50:30.862Z,62.43
2022-07-31T00:54:32.834Z,62.30
2022-07-31T00:58:34.335Z,62.20
2022-07-31T01:02:37.364Z,62.75
2022-07-31T01:06:42.561Z,62.88
2022-07-31T01:10:52.715Z,63.22
2022-07-31T01:14:57.927Z,63.31
2022-07-31T01:19:05.039Z,63.76
2022-07-31T01:23:17.039Z,64.32
2022-07-31T01:27:49.204Z,64.51
2022-07-31T01:32:10.153Z,65.23
2022-07-31T01:36:19.557Z,65.71
2022-07-31T01:40:27.570Z,66.19
2022-07-31T01:44:31.245Z,66.46
2022-07-31T01:48:33.935Z,66.78
2022-07-31T01:52:37.445Z,66.83
2022-07-31T01:56:40.242Z,66.66
2022-07-31T02:00:43.194Z,66.92
2022-07-31T02:04:47.170Z,67.77
2022-07-31T02:08:52.056Z,69.25
2022-07-31T02:12:54.586Z,68.84
2022-07-31T02:16:56.797Z,68.55
2022-07-31T02:20:58.288Z,67.71
2022-07-31T02:24:59.870Z,67.90
2022-07-31T02:29:02.631Z,67.51
2022-07-31T02:33:06.557Z,67.33
2022-07-31T02:37:09.290Z,67.91
2022-07-31T02:41:12.426Z,68.38
2022-07-31T02:45:14.379Z,68.66
2022-07-31T02:49:16.450Z,68.85
2022-07-31T02:53:18.795Z,69.15
2022-07-31T02:57:20.417Z,69.65
2022-07-31T03:01:21.949Z,70.12
2022-07-31T03:05:23.697Z,70.14
2022-07-31T03:09:25.096Z,70.14
2022-07-31T03:13:29.874Z,70.79
2022-07-31T03:17:38.768Z,71.21
2022-07-31T03:21:43.853Z,72.09
2022-07-31T03:25:45.309Z,72.01
2022-07-31T03:29:46.843Z,71.75
2022-07-31T03:33:48.362Z,71.55
2022-07-31T03:37:49.983Z,71.56
2022-07-31T03:41:52.902Z,71.10
2022-07-31T03:45:55.249Z,71.15
2022-07-31T03:49:56.719Z,71.26
2022-07-31T03:53:58.242Z,71.15
2022-07-31T03:58:00.658Z,72.02
2022-07-31T04:02:05.998Z,72.13
2022-07-31T04:06:08.414Z,72.00
2022-07-31T04:10:10.179Z,72.08
2022-07-31T04:14:11.605Z,72.40
2022-07-31T04:18:13.154Z,72.55
2022-07-31T04:22:14.839Z,72.18
2022-07-31T04:26:20.123Z,72.25
2022-07-31T04:30:27.817Z,72.19
2022-07-31T04:34:29.250Z,72.29
2022-07-31T04:38:30.690Z,72.49
2022-07-31T04:42:32.854Z,72.56
2022-07-31T04:46:34.361Z,72.82
2022-07-31T04:50:36.457Z,73.07
2022-07-31T04:54:39.076Z,73.31
2022-07-31T04:58:40.566Z,73.53
2022-07-31T05:02:42.316Z,73.49
2022-07-31T05:06:46.410Z,73.85
2022-07-31T05:11:06.542Z,73.78
2022-07-31T05:15:08.466Z,73.95
2022-07-31T05:19:13.828Z,73.58
2022-07-31T05:23:16.578Z,74.32
2022-07-31T05:27:18.033Z,73.31
2022-07-31T05:31:20.208Z,71.37
2022-07-31T05:35:22.108Z,69.71
2022-07-31T05:39:25.107Z,68.65
2022-07-31T05:43:26.743Z,66.72
2022-07-31T05:47:40.026Z,64.93
2022-07-31T05:51:46.466Z,63.20
2022-07-31T05:55:49.916Z,61.33
2022-07-31T05:59:51.342Z,60.97
2022-07-31T06:03:52.860Z,60.99
2022-07-31T06:07:54.520Z,60.15
2022-07-31T06:11:55.955Z,58.87
2022-07-31T06:15:57.449Z,56.58
2022-07-31T06:19:58.881Z,55.76
2022-07-31T06:24:00.396Z,55.30
2022-07-31T06:28:04.171Z,55.96
2022-07-31T06:32:11.915Z,55.21
2022-07-31T06:36:13.658Z,55.22
2022-07-31T06:40:15.119Z,55.59
2022-07-31T06:44:20.015Z,53.66
2022-07-31T06:48:21.615Z,53.22
2022-07-31T06:52:23.538Z,52.90
2022-07-31T06:56:24.881Z,52.58
2022-07-31T07:00:26.302Z,51.00
2022-07-31T07:05:05.163Z,50.45
2022-07-31T07:08:49.482Z,48.27
2022-07-31T07:12:50.990Z,47.71
2022-07-31T07:16:52.871Z,47.29
2022-07-31T07:20:54.699Z,47.98
2022-07-31T07:24:56.064Z,49.23
2022-07-31T07:28:57.854Z,48.47
2022-07-31T07:32:59.765Z,49.11
2022-07-31T07:37:01.270Z,48.16
2022-07-31T07:41:02.989Z,47.99
2022-07-31T07:45:08.111Z,45.79
2022-07-31T07:49:09.957Z,46.83
2022-07-31T07:53:12.884Z,46.16
2022-07-31T07:57:18.608Z,46.47
2022-07-31T08:01:20.926Z,45.62
2022-07-31T08:05:22.565Z,44.30
2022-07-31T08:09:24.346Z,42.27
2022-07-31T08:13:25.789Z,41.65
2022-07-31T08:17:28.809Z,42.39
2022-07-31T08:21:30.620Z,41.92
2022-07-31T08:25:32.280Z,40.77
2022-07-31T08:29:33.748Z,39.45
2022-07-31T08:33:38.542Z,38.78
2022-07-31T08:37:52.207Z,39.18
2022-07-31T08:42:08.264Z,36.82
2022-07-31T08:46:13.000Z,36.76
2022-07-31T08:55:55.131Z,34.29
2022-07-31T08:59:58.993Z,33.47
2022-07-31T09:04:00.594Z,33.69
2022-07-31T09:08:03.348Z,34.17
2022-07-31T09:12:10.973Z,33.64
2022-07-31T09:16:12.506Z,31.74
2022-07-31T09:20:19.540Z,32.72
2022-07-31T09:24:31.888Z,31.65
2022-07-31T09:28:44.972Z,31.48
2022-07-31T09:32:46.377Z,29.75
2022-07-31T09:37:13.709Z,29.51
2022-07-31T09:41:56.181Z,29.92
2022-07-31T09:45:48.622Z,29.62
2022-07-31T09:49:59.124Z,29.85
2022-07-31T09:54:00.602Z,29.40
2022-07-31T09:58:02.957Z,29.60
2022-07-31T10:02:05.560Z,29.05
2022-07-31T10:06:14.721Z,29.90
2022-07-31T10:10:18.635Z,29.71
2022-07-31T10:14:30.885Z,29.27
2022-07-31T10:18:39.477Z,29.11
2022-07-31T10:22:46.981Z,29.56
2022-07-31T10:27:09.501Z,29.30
2022-07-31T10:31:12.502Z,29.17
2022-07-31T10:35:14.839Z,29.17
2022-07-31T10:39:24.596Z,28.87
2022-07-31T10:43:50.533Z,28.76
2022-07-31T10:48:00.348Z,29.14
2022-07-31T10:52:02.142Z,28.84
2022-07-31T10:56:05.457Z,29.39
2022-07-31T11:00:14.870Z,29.37
2022-07-31T11:04:27.356Z,28.96
2022-07-31T11:08:28.744Z,28.38
2022-07-31T11:12:30.191Z,29.00
2022-07-31T11:16:31.787Z,29.29
2022-07-31T11:20:33.377Z,29.10
2022-07-31T11:24:34.935Z,27.00
2022-07-31T11:28:36.593Z,27.38
2022-07-31T11:32:38.101Z,26.70
2022-07-31T11:36:43.387Z,26.14
2022-07-31T11:40:49.721Z,27.11
2022-07-31T11:44:51.827Z,26.18
2022-07-31T11:48:57.530Z,26.07
2022-07-31T11:53:03.561Z,26.22
2022-07-31T11:57:06.443Z,27.14
2022-07-31T12:01:09.066Z,25.99
2022-07-31T12:05:13.442Z,25.23
2022-07-31T12:10:00.805Z,25.67
2022-07-31T12:13:36.680Z,25.21
2022-07-31T12:17:40.026Z,25.63
2022-07-31T12:21:41.989Z,26.17
2022-07-31T12:25:45.620Z,25.40
2022-07-31T12:29:47.166Z,25.71
2022-07-31T12:33:48.816Z,24.60
2022-07-31T12:37:51.090Z,25.26
2022-07-31T12:41:53.609Z,24.09
2022-07-31T12:45:55.001Z,24.94
2022-07-31T12:50:00.289Z,25.31
2022-07-31T12:54:06.433Z,24.47
2022-07-31T12:58:07.877Z,24.53
2022-07-31T13:02:09.881Z,25.50
2022-07-31T13:06:11.377Z,26.60
2022-07-31T13:10:20.300Z,25.77
2022-07-31T13:14:24.085Z,25.16
2022-07-31T13:18:25.512Z,25.10
2022-07-31T13:22:27.059Z,25.72
2022-07-31T13:26:28.986Z,26.33
2022-07-31T13:30:30.543Z,25.88
2022-07-31T13:34:32.023Z,25.37
2022-07-31T13:38:33.453Z,24.43
2022-07-31T13:42:34.833Z,25.13
2022-07-31T13:46:36.576Z,25.20
2022-07-31T13:50:39.816Z,25.37
2022-07-31T13:54:41.602Z,24.21
2022-07-31T13:58:43.230Z,24.67
2022-07-31T14:02:46.557Z,25.06
2022-07-31T14:06:48.177Z,24.02
2022-07-31T14:10:50.293Z,24.32
2022-07-31T14:14:51.716Z,25.03
2022-07-31T14:18:54.322Z,25.10
2022-07-31T14:22:55.826Z,24.56
2022-07-31T14:26:57.273Z,24.28
2022-07-31T14:30:58.777Z,25.11
2022-07-31T14:35:02.344Z,25.29
2022-07-31T14:39:06.162Z,24.84
2022-07-31T14:43:10.299Z,25.45
2022-07-31T14:47:12.142Z,25.81
2022-07-31T14:51:18.086Z,24.96
2022-07-31T14:55:19.829Z,25.51
2022-07-31T14:59:21.406Z,25.54
2022-07-31T15:03:23.006Z,25.82
2022-07-31T15:07:46.324Z,25.73
2022-07-31T15:11:59.427Z,26.32
2022-07-31T15:16:02.977Z,25.92
2022-07-31T15:20:05.257Z,25.96
2022-07-31T15:24:06.982Z,26.56
2022-07-31T15:28:08.948Z,25.03
2022-07-31T15:32:10.352Z,24.96
2022-07-31T15:36:15.092Z,24.44
2022-07-31T15:40:17.357Z,24.98
2022-07-31T15:44:18.793Z,25.25
2022-07-31T15:48:20.346Z,25.39
2022-07-31T15:52:21.990Z,24.65
2022-07-31T15:56:23.569Z,25.03
2022-07-31T16:00:25.669Z,24.78
2022-07-31T16:04:27.781Z,24.69
2022-07-31T16:08:35.659Z,25.36
2022-07-31T16:12:37.448Z,26.01
2022-07-31T16:16:42.999Z,26.17
2022-07-31T16:20:47.109Z,26.01
2022-07-31T16:24:48.480Z,26.43
2022-07-31T16:28:53.679Z,25.84
2022-07-31T16:32:55.708Z,26.25
2022-07-31T16:36:57.181Z,27.02
2022-07-31T16:40:58.657Z,28.11
2022-07-31T16:45:00.141Z,28.03
2022-07-31T16:49:01.886Z,28.42
2022-07-31T16:54:11.219Z,28.51
2022-07-31T16:57:46.525Z,28.71
2022-07-31T17:01:59.048Z,28.69
2022-07-31T17:06:03.939Z,29.28
2022-07-31T17:10:05.889Z,29.72
2022-07-31T17:14:07.388Z,29.86
2022-07-31T17:18:09.050Z,33.32
2022-07-31T17:22:11.405Z,34.53
2022-07-31T17:26:21.542Z,34.70
2022-07-31T17:30:23.789Z,34.30
2022-07-31T17:34:25.090Z,32.48
2022-07-31T17:38:26.545Z,33.61
2022-07-31T17:42:28.175Z,32.86
2022-07-31T17:46:34.412Z,33.03
2022-07-31T17:50:54.128Z,34.05
2022-07-31T17:54:56.034Z,36.39
2022-07-31T17:59:04.359Z,35.46
2022-07-31T18:03:05.915Z,35.50
2022-07-31T18:07:07.642Z,35.50
2022-07-31T18:11:09.077Z,35.66
2022-07-31T18:15:11.922Z,36.63
2022-07-31T18:19:14.249Z,35.99
2022-07-31T18:23:15.717Z,36.52
2022-07-31T18:27:19.034Z,36.83
2022-07-31T18:31:34.566Z,37.64
2022-07-31T18:35:37.262Z,36.79
2022-07-31T18:39:48.106Z,39.65
2022-07-31T18:43:50.694Z,37.47
2022-07-31T18:47:53.353Z,38.42
2022-07-31T18:51:54.793Z,39.52
2022-07-31T18:55:56.334Z,40.04
2022-07-31T18:59:57.778Z,41.43
2022-07-31T19:03:59.560Z,42.40
2022-07-31T19:08:01.008Z,43.19
2022-07-31T19:12:07.635Z,43.29
2022-07-31T19:16:09.901Z,44.25
2022-07-31T19:20:40.165Z,44.75
2022-07-31T19:24:34.647Z,45.42
2022-07-31T19:28:38.077Z,46.16
2022-07-31T19:32:40.765Z,45.79
2022-07-31T19:36:42.477Z,46.48
2022-07-31T19:40:45.005Z,47.63
2022-07-31T19:44:46.392Z,47.49
2022-07-31T19:48:47.982Z,48.66
2022-07-31T19:52:49.598Z,49.12
2022-07-31T19:56:51.045Z,49.12
2022-07-31T20:00:52.579Z,49.93
2022-07-31T20:04:56.138Z,49.18
2022-07-31T20:08:58.659Z,50.39
2022-07-31T20:13:00.126Z,50.28
2022-07-31T20:17:01.921Z,51.36
2022-07-31T20:21:08.978Z,51.63
2022-07-31T20:25:12.041Z,52.15
2022-07-31T20:29:21.728Z,52.53
2022-07-31T20:33:23.559Z,52.34
2022-07-31T20:37:25.835Z,52.59
2022-07-31T20:41:27.897Z,53.22
2022-07-31T20:45:29.940Z,53.26
2022-07-31T20:49:35.673Z,53.51
2022-07-31T20:53:37.478Z,53.93
2022-07-31T20:57:39.012Z,53.85
2022-07-31T21:01:41.888Z,53.97
2022-07-31T21:05:43.849Z,54.28
2022-07-31T21:09:45.165Z,55.76
2022-07-31T21:13:46.602Z,56.04
2022-07-31T21:17:48.074Z,56.27
2022-07-31T21:21:51.081Z,57.09
2022-07-31T21:25:54.733Z,57.51
2022-07-31T21:29:57.153Z,57.64
2022-07-31T21:33:59.128Z,58.12
2022-07-31T21:38:01.789Z,58.44
2022-07-31T21:42:05.370Z,58.67
2022-07-31T21:46:08.769Z,59.20
2022-07-31T21:50:10.905Z,59.18
2022-07-31T21:54:15.459Z,59.77
2022-07-31T21:58:17.437Z,60.05
2022-07-31T22:02:18.772Z,60.30
2022-07-31T22:06:38.725Z,61.53
2022-07-31T22:10:40.402Z,62.10
2022-07-31T22:14:41.805Z,62.68
2022-07-31T22:18:43.564Z,62.93
2022-07-31T22:22:45.555Z,64.03
2022-07-31T22:27:16.648Z,64.33
2022-07-31T22:31:18.401Z,64.54
2022-07-31T22:35:20.865Z,65.37
2022-07-31T22:39:22.589Z,65.37
2022-07-31T22:44:10.624Z,65.75
2022-07-31T22:47:45.737Z,65.78
2022-07-31T22:51:47.254Z,66.34
2022-07-31T22:55:49.126Z,66.33
2022-07-31T22:59:50.533Z,66.34
2022-07-31T23:03:53.827Z,66.65
2022-07-31T23:07:55.240Z,67.43
2022-07-31T23:11:57.559Z,67.88
2022-07-31T23:15:59.527Z,68.31
2022-07-31T23:20:01.286Z,69.19
2022-07-31T23:24:02.759Z,69.36
2022-07-31T23:28:04.482Z,69.09
2022-07-31T23:36:31.406Z,70.54
2022-07-31T23:40:32.918Z,70.85
2022-07-31T23:44:34.303Z,70.74
2022-07-31T23:48:41.638Z,70.56
2022-07-31T23:52:45.447Z,71.42
2022-07-31T23:56:46.953Z,71.35
